createdAt,value
2017-04-07T00:00:19.268Z,10.25
2017-04-07T00:00:45.373Z,10.28
2017-04-07T00:01:11.450Z,10.33
2017-04-07T00:01:37.529Z,10.34
2017-04-07T00:02:03.634Z,10.33
2017-04-07T00:02:29.713Z,10.33
2017-04-07T00:02:55.796Z,10.41
2017-04-07T00:03:21.876Z,10.28
2017-04-07T00:03:47.958Z,10.37
2017-04-07T00:04:14.039Z,10.41
2017-04-07T00:04:40.120Z,10.41
2017-04-07T00:05:06.199Z,10.42
2017-04-07T00:05:32.303Z,10.4
2017-04-07T00:05:58.408Z,10.38
2017-04-07T00:06:24.486Z,10.37
2017-04-07T00:06:50.565Z,10.38
2017-04-07T00:07:16.644Z,10.28
2017-04-07T00:07:42.722Z,10.33
2017-04-07T00:08:08.802Z,10.34
2017-04-07T00:08:34.881Z,10.26
2017-04-07T00:09:00.960Z,10.35
2017-04-07T00:09:27.039Z,10.28
2017-04-07T00:09:53.145Z,10.37
2017-04-07T00:10:19.248Z,10.34
2017-04-07T00:10:45.326Z,10.33
2017-04-07T00:11:11.409Z,10.31
2017-04-07T00:11:37.490Z,10.23
2017-04-07T00:12:03.568Z,10.28
2017-04-07T00:12:29.670Z,10.23
2017-04-07T00:12:55.751Z,10.26
2017-04-07T00:13:21.828Z,10.23
2017-04-07T00:13:47.907Z,10.25
2017-04-07T00:14:13.988Z,10.3
2017-04-07T00:14:40.068Z,10.28
2017-04-07T00:15:06.170Z,10.25
2017-04-07T00:15:32.252Z,10.2
2017-04-07T00:15:58.336Z,10.2
2017-04-07T00:16:24.409Z,10.25
2017-04-07T00:16:50.489Z,10.2
2017-04-07T00:17:16.592Z,10.26
2017-04-07T00:17:42.672Z,10.2
2017-04-07T00:18:08.751Z,10.22
2017-04-07T00:18:34.833Z,10.19
2017-04-07T00:19:01.219Z,10.23
2017-04-07T00:19:27.293Z,10.15
2017-04-07T00:19:53.373Z,10.19
2017-04-07T00:20:19.453Z,10.3
2017-04-07T00:20:45.579Z,10.26
2017-04-07T00:21:11.657Z,10.31
2017-04-07T00:21:37.783Z,10.26
2017-04-07T00:22:03.866Z,10.3
2017-04-07T00:22:29.963Z,10.22
2017-04-07T00:22:56.046Z,10.17
2017-04-07T00:23:22.130Z,10.17
2017-04-07T00:23:48.211Z,10.19
2017-04-07T00:24:14.290Z,10.19
2017-04-07T00:24:40.368Z,10.26
2017-04-07T00:25:06.451Z,10.26
2017-04-07T00:25:32.528Z,10.2
2017-04-07T00:25:58.608Z,10.19
2017-04-07T00:26:24.690Z,10.1
2017-04-07T00:26:50.794Z,10.04
2017-04-07T00:27:16.872Z,10.17
2017-04-07T00:27:42.952Z,10.07
2017-04-07T00:28:09.037Z,10.1
2017-04-07T00:28:35.139Z,9.95
2017-04-07T00:29:01.217Z,9.98
2017-04-07T00:29:27.319Z,9.92
2017-04-07T00:29:53.401Z,9.95
2017-04-07T00:30:19.526Z,9.98
2017-04-07T00:30:45.604Z,9.98
2017-04-07T00:31:11.686Z,9.99
2017-04-07T00:31:37.790Z,9.99
2017-04-07T00:32:03.868Z,9.98
2017-04-07T00:32:29.947Z,10.02
2017-04-07T00:32:56.032Z,9.84
2017-04-07T00:33:22.111Z,9.89
2017-04-07T00:33:48.191Z,9.89
2017-04-07T00:34:14.273Z,9.86
2017-04-07T00:34:40.354Z,9.91
2017-04-07T00:35:06.461Z,9.8
2017-04-07T00:35:32.540Z,9.94
2017-04-07T00:35:58.620Z,9.92
2017-04-07T00:36:24.700Z,9.82
2017-04-07T00:36:50.803Z,9.83
2017-04-07T00:37:16.882Z,9.97
2017-04-07T00:37:42.963Z,9.91
2017-04-07T00:38:09.066Z,9.79
2017-04-07T00:38:35.147Z,9.8
2017-04-07T00:39:01.227Z,9.83
2017-04-07T00:39:27.308Z,9.83
2017-04-07T00:39:53.389Z,9.79
2017-04-07T00:40:19.469Z,9.84
2017-04-07T00:40:45.548Z,9.77
2017-04-07T00:41:11.627Z,9.79
2017-04-07T00:41:37.706Z,9.8
2017-04-07T00:42:03.782Z,9.76
2017-04-07T00:42:29.861Z,9.66
2017-04-07T00:42:55.938Z,9.74
2017-04-07T00:43:22.041Z,9.69
2017-04-07T00:43:48.122Z,9.69
2017-04-07T00:44:14.222Z,9.73
2017-04-07T00:44:40.302Z,9.83
2017-04-07T00:45:06.408Z,9.79
2017-04-07T00:45:32.487Z,9.79
2017-04-07T00:45:58.564Z,9.73
2017-04-07T00:46:24.646Z,9.73
2017-04-07T00:46:50.727Z,9.76
2017-04-07T00:47:16.828Z,9.79
2017-04-07T00:47:42.914Z,9.84
2017-04-07T00:48:08.998Z,9.84
2017-04-07T00:48:35.076Z,9.84
2017-04-07T00:49:01.156Z,9.74
2017-04-07T00:49:27.587Z,9.72
2017-04-07T00:49:53.666Z,9.66
2017-04-07T00:50:19.744Z,9.65
2017-04-07T00:50:45.826Z,9.66
2017-04-07T00:51:11.906Z,9.59
2017-04-07T00:51:38.007Z,9.68
2017-04-07T00:52:04.087Z,9.64
2017-04-07T00:52:30.168Z,9.59
2017-04-07T00:52:56.246Z,9.66
2017-04-07T00:53:22.350Z,9.65
2017-04-07T00:53:48.432Z,9.66
2017-04-07T00:54:14.514Z,9.62
2017-04-07T00:54:40.593Z,9.61
2017-04-07T00:55:06.673Z,9.55
2017-04-07T00:55:32.752Z,9.51
2017-04-07T00:55:58.830Z,9.58
2017-04-07T00:56:24.912Z,9.56
2017-04-07T00:56:50.993Z,9.56
2017-04-07T00:57:17.073Z,9.61
2017-04-07T00:57:43.152Z,9.59
2017-04-07T00:58:09.231Z,9.5
2017-04-07T00:58:35.309Z,9.5
2017-04-07T00:59:01.389Z,9.54
2017-04-07T00:59:27.516Z,9.58
2017-04-07T00:59:53.598Z,9.5
2017-04-07T01:00:19.677Z,9.55
2017-04-07T01:00:45.755Z,9.54
2017-04-07T01:01:11.860Z,9.54
2017-04-07T01:01:37.939Z,9.43
2017-04-07T01:02:04.018Z,9.46
2017-04-07T01:02:30.122Z,9.54
2017-04-07T01:02:56.235Z,9.54
2017-04-07T01:03:22.311Z,9.54
2017-04-07T01:03:48.390Z,9.5
2017-04-07T01:04:14.494Z,9.54
2017-04-07T01:04:40.596Z,9.56
2017-04-07T01:05:06.701Z,9.56
2017-04-07T01:05:32.804Z,9.62
2017-04-07T01:05:58.881Z,9.61
2017-04-07T01:06:24.961Z,9.59
2017-04-07T01:06:51.043Z,9.56
2017-04-07T01:07:17.123Z,9.62
2017-04-07T01:07:43.200Z,9.59
2017-04-07T01:08:09.281Z,9.56
2017-04-07T01:08:35.359Z,9.64
2017-04-07T01:09:01.461Z,9.54
2017-04-07T01:09:27.542Z,9.64
2017-04-07T01:09:53.646Z,9.64
2017-04-07T01:10:19.750Z,9.62
2017-04-07T01:10:45.825Z,9.61
2017-04-07T01:11:11.905Z,9.61
2017-04-07T01:11:38.005Z,9.55
2017-04-07T01:12:04.084Z,9.44
2017-04-07T01:12:30.165Z,9.47
2017-04-07T01:12:56.240Z,9.41
2017-04-07T01:13:22.322Z,9.47
2017-04-07T01:13:48.402Z,9.46
2017-04-07T01:14:14.481Z,9.41
2017-04-07T01:14:40.580Z,9.46
2017-04-07T01:15:06.661Z,9.47
2017-04-07T01:15:32.740Z,9.44
2017-04-07T01:15:58.842Z,9.44
2017-04-07T01:16:24.945Z,9.41
2017-04-07T01:16:51.027Z,9.44
2017-04-07T01:17:17.103Z,9.44
2017-04-07T01:17:43.205Z,9.47
2017-04-07T01:18:09.287Z,9.44
2017-04-07T01:18:35.365Z,9.41
2017-04-07T01:19:01.445Z,9.5
2017-04-07T01:19:27.849Z,9.39
2017-04-07T01:19:53.952Z,9.47
2017-04-07T01:20:20.031Z,9.46
2017-04-07T01:20:46.111Z,9.44
2017-04-07T01:21:12.194Z,9.47
2017-04-07T01:21:38.274Z,9.43
2017-04-07T01:22:04.354Z,9.41
2017-04-07T01:22:30.457Z,9.46
2017-04-07T01:22:56.559Z,9.43
2017-04-07T01:23:22.638Z,9.44
2017-04-07T01:23:48.748Z,9.41
2017-04-07T01:24:14.798Z,9.43
2017-04-07T01:24:40.878Z,9.44
2017-04-07T01:25:06.956Z,9.48
2017-04-07T01:25:33.060Z,9.48
2017-04-07T01:25:59.141Z,9.5
2017-04-07T01:26:25.222Z,9.44
2017-04-07T01:26:51.323Z,9.47
2017-04-07T01:27:17.402Z,9.43
2017-04-07T01:27:43.481Z,9.54
2017-04-07T01:28:09.582Z,9.47
2017-04-07T01:28:35.685Z,9.47
2017-04-07T01:29:01.766Z,9.54
2017-04-07T01:29:27.847Z,9.46
2017-04-07T01:29:53.925Z,9.48
2017-04-07T01:30:20.005Z,9.51
2017-04-07T01:30:46.085Z,9.41
2017-04-07T01:31:12.161Z,9.44
2017-04-07T01:31:38.242Z,9.48
2017-04-07T01:32:04.324Z,9.43
2017-04-07T01:32:30.425Z,9.47
2017-04-07T01:32:56.506Z,9.47
2017-04-07T01:33:22.588Z,9.44
2017-04-07T01:33:48.667Z,9.37
2017-04-07T01:34:14.792Z,9.36
2017-04-07T01:34:40.871Z,9.32
2017-04-07T01:35:06.953Z,9.36
2017-04-07T01:35:33.029Z,9.43
2017-04-07T01:35:59.109Z,9.46
2017-04-07T01:36:25.191Z,9.39
2017-04-07T01:36:51.269Z,9.34
2017-04-07T01:37:17.349Z,9.41
2017-04-07T01:37:43.429Z,9.4
2017-04-07T01:38:09.532Z,9.28
2017-04-07T01:38:35.609Z,9.28
2017-04-07T01:39:01.711Z,9.18
2017-04-07T01:39:27.791Z,9.26
2017-04-07T01:39:53.872Z,9.25
2017-04-07T01:40:19.951Z,9.23
2017-04-07T01:40:46.057Z,9.32
2017-04-07T01:41:12.140Z,9.29
2017-04-07T01:41:38.219Z,9.34
2017-04-07T01:42:04.301Z,9.36
2017-04-07T01:42:30.398Z,9.29
2017-04-07T01:42:56.481Z,9.39
2017-04-07T01:43:22.561Z,9.31
2017-04-07T01:43:48.640Z,9.32
2017-04-07T01:44:14.745Z,9.34
2017-04-07T01:44:40.823Z,9.32
2017-04-07T01:45:06.924Z,9.37
2017-04-07T01:45:33.006Z,9.37
2017-04-07T01:45:59.089Z,9.23
2017-04-07T01:46:25.168Z,9.22
2017-04-07T01:46:51.247Z,9.25
2017-04-07T01:47:17.352Z,9.18
2017-04-07T01:47:43.442Z,9.23
2017-04-07T01:48:09.537Z,9.19
2017-04-07T01:48:35.636Z,9.21
2017-04-07T01:49:01.716Z,9.21
2017-04-07T01:49:27.798Z,9.23
2017-04-07T01:49:53.898Z,9.29
2017-04-07T01:50:19.978Z,9.34
2017-04-07T01:50:46.058Z,9.31
2017-04-07T01:51:12.139Z,9.36
2017-04-07T01:51:38.221Z,9.34
2017-04-07T01:52:04.301Z,9.41
2017-04-07T01:52:30.404Z,9.4
2017-04-07T01:52:56.484Z,9.44
2017-04-07T01:53:22.562Z,9.41
2017-04-07T01:53:48.646Z,9.41
2017-04-07T01:54:14.722Z,9.46
2017-04-07T01:54:40.802Z,9.44
2017-04-07T01:55:06.930Z,9.5
2017-04-07T01:55:33.031Z,9.47
2017-04-07T01:55:59.109Z,9.54
2017-04-07T01:56:25.236Z,9.56
2017-04-07T01:56:51.316Z,9.55
2017-04-07T01:57:17.397Z,9.56
2017-04-07T01:57:43.476Z,9.46
2017-04-07T01:58:09.556Z,9.46
2017-04-07T01:58:35.638Z,9.51
2017-04-07T01:59:01.718Z,9.5
2017-04-07T01:59:27.796Z,9.55
2017-04-07T01:59:53.877Z,9.56
2017-04-07T02:00:19.959Z,9.61
2017-04-07T02:00:46.035Z,9.59
2017-04-07T02:01:12.115Z,9.61
2017-04-07T02:01:38.195Z,9.58
2017-04-07T02:02:04.273Z,9.54
2017-04-07T02:02:30.377Z,9.58
2017-04-07T02:02:56.459Z,9.64
2017-04-07T02:03:22.538Z,9.58
2017-04-07T02:03:48.616Z,9.62
2017-04-07T02:04:14.721Z,9.61
2017-04-07T02:04:40.803Z,9.64
2017-04-07T02:05:06.882Z,9.55
2017-04-07T02:05:32.959Z,9.66
2017-04-07T02:05:59.041Z,9.59
2017-04-07T02:06:25.119Z,9.62
2017-04-07T02:06:51.224Z,9.69
2017-04-07T02:07:17.307Z,9.61
2017-04-07T02:07:43.389Z,9.64
2017-04-07T02:08:09.469Z,9.62
2017-04-07T02:08:35.546Z,9.59
2017-04-07T02:09:01.627Z,9.65
2017-04-07T02:09:27.729Z,9.64
2017-04-07T02:09:53.805Z,9.61
2017-04-07T02:10:19.887Z,9.59
2017-04-07T02:10:45.968Z,9.56
2017-04-07T02:11:12.094Z,9.64
2017-04-07T02:11:38.173Z,9.61
2017-04-07T02:12:04.254Z,9.58
2017-04-07T02:12:30.335Z,9.64
2017-04-07T02:12:56.410Z,9.58
2017-04-07T02:13:22.491Z,9.59
2017-04-07T02:13:48.571Z,9.62
2017-04-07T02:14:14.653Z,9.51
2017-04-07T02:14:40.733Z,9.61
2017-04-07T02:15:06.832Z,9.59
2017-04-07T02:15:32.912Z,9.51
2017-04-07T02:15:58.992Z,9.61
2017-04-07T02:16:25.120Z,9.61
2017-04-07T02:16:51.201Z,9.66
2017-04-07T02:17:17.277Z,9.58
2017-04-07T02:17:43.358Z,9.72
2017-04-07T02:18:09.460Z,9.58
2017-04-07T02:18:35.548Z,9.64
2017-04-07T02:19:01.625Z,9.64
2017-04-07T02:19:27.706Z,9.58
2017-04-07T02:19:53.807Z,9.61
2017-04-07T02:20:20.240Z,9.61
2017-04-07T02:20:46.321Z,9.61
2017-04-07T02:21:12.397Z,9.64
2017-04-07T02:21:38.500Z,9.61
2017-04-07T02:22:04.582Z,9.59
2017-04-07T02:22:30.680Z,9.55
2017-04-07T02:22:56.783Z,9.5
2017-04-07T02:23:22.863Z,9.64
2017-04-07T02:23:48.941Z,9.62
2017-04-07T02:24:15.021Z,9.61
2017-04-07T02:24:41.107Z,9.62
2017-04-07T02:25:07.179Z,9.62
2017-04-07T02:25:33.259Z,9.59
2017-04-07T02:25:59.338Z,9.62
2017-04-07T02:26:25.441Z,9.68
2017-04-07T02:26:51.519Z,9.61
2017-04-07T02:27:17.602Z,9.58
2017-04-07T02:27:43.683Z,9.62
2017-04-07T02:28:09.759Z,9.58
2017-04-07T02:28:35.839Z,9.58
2017-04-07T02:29:01.920Z,9.54
2017-04-07T02:29:27.998Z,9.5
2017-04-07T02:29:54.080Z,9.55
2017-04-07T02:30:20.158Z,9.59
2017-04-07T02:30:46.237Z,9.61
2017-04-07T02:31:12.319Z,9.58
2017-04-07T02:31:38.420Z,9.55
2017-04-07T02:32:04.499Z,9.62
2017-04-07T02:32:30.603Z,9.65
2017-04-07T02:32:56.683Z,9.56
2017-04-07T02:33:22.760Z,9.64
2017-04-07T02:33:48.861Z,9.61
2017-04-07T02:34:14.944Z,9.59
2017-04-07T02:34:41.022Z,9.61
2017-04-07T02:35:07.124Z,9.61
2017-04-07T02:35:33.227Z,9.66
2017-04-07T02:35:59.308Z,9.76
2017-04-07T02:36:25.409Z,9.73
2017-04-07T02:36:51.489Z,9.68
2017-04-07T02:37:17.615Z,9.62
2017-04-07T02:37:43.695Z,9.64
2017-04-07T02:38:09.772Z,9.68
2017-04-07T02:38:35.852Z,9.61
2017-04-07T02:39:01.954Z,9.72
2017-04-07T02:39:28.055Z,9.72
2017-04-07T02:39:54.136Z,9.72
2017-04-07T02:40:20.218Z,9.72
2017-04-07T02:40:46.317Z,9.79
2017-04-07T02:41:12.396Z,9.72
2017-04-07T02:41:38.480Z,9.69
2017-04-07T02:42:04.561Z,9.72
2017-04-07T02:42:30.662Z,9.77
2017-04-07T02:42:56.764Z,9.73
2017-04-07T02:43:22.846Z,9.74
2017-04-07T02:43:48.929Z,9.74
2017-04-07T02:44:15.034Z,9.68
2017-04-07T02:44:41.135Z,9.69
2017-04-07T02:45:07.240Z,9.72
2017-04-07T02:45:33.322Z,9.68
2017-04-07T02:45:59.453Z,9.66
2017-04-07T02:46:25.527Z,9.69
2017-04-07T02:46:51.607Z,9.72
2017-04-07T02:47:17.690Z,9.61
2017-04-07T02:47:43.768Z,9.65
2017-04-07T02:48:09.849Z,9.74
2017-04-07T02:48:35.950Z,9.69
2017-04-07T02:49:02.033Z,9.73
2017-04-07T02:49:28.109Z,9.62
2017-04-07T02:49:54.210Z,9.69
2017-04-07T02:50:20.289Z,9.66
2017-04-07T02:50:46.365Z,9.73
2017-04-07T02:51:12.446Z,9.83
2017-04-07T02:51:38.548Z,9.83
2017-04-07T02:52:04.649Z,9.8
2017-04-07T02:52:30.730Z,9.86
2017-04-07T02:52:56.811Z,9.92
2017-04-07T02:53:22.888Z,9.86
2017-04-07T02:53:48.967Z,9.87
2017-04-07T02:54:15.044Z,9.89
2017-04-07T02:54:41.123Z,9.92
2017-04-07T02:55:07.205Z,9.95
2017-04-07T02:55:33.308Z,9.89
2017-04-07T02:55:59.386Z,9.83
2017-04-07T02:56:25.467Z,9.84
2017-04-07T02:56:55.163Z,9.94
2017-04-07T02:57:21.243Z,9.86
2017-04-07T02:57:47.322Z,9.83
2017-04-07T02:58:13.401Z,9.89
2017-04-07T02:58:39.483Z,9.84
2017-04-07T02:59:05.562Z,9.95
2017-04-07T02:59:31.644Z,9.94
2017-04-07T02:59:57.725Z,9.99
2017-04-07T03:00:23.804Z,9.94
2017-04-07T03:00:49.882Z,9.83
2017-04-07T03:01:15.963Z,9.82
2017-04-07T03:01:42.067Z,9.86
2017-04-07T03:02:08.146Z,9.95
2017-04-07T03:02:34.229Z,9.95
2017-04-07T03:03:00.307Z,9.98
2017-04-07T03:03:26.409Z,9.95
2017-04-07T03:03:52.510Z,9.92
2017-04-07T03:04:18.592Z,10.04
2017-04-07T03:04:44.672Z,9.95
2017-04-07T03:05:10.750Z,9.97
2017-04-07T03:05:36.852Z,9.95
2017-04-07T03:06:02.933Z,9.97
2017-04-07T03:06:29.011Z,9.97
2017-04-07T03:06:55.091Z,9.95
2017-04-07T03:07:21.175Z,9.95
2017-04-07T03:07:47.280Z,9.95
2017-04-07T03:08:13.359Z,9.92
2017-04-07T03:08:39.439Z,9.92
2017-04-07T03:09:05.520Z,9.94
2017-04-07T03:09:31.599Z,9.94
2017-04-07T03:09:57.676Z,9.95
2017-04-07T03:10:23.758Z,9.97
2017-04-07T03:10:49.839Z,9.94
2017-04-07T03:11:15.917Z,9.89
2017-04-07T03:11:42.001Z,9.94
2017-04-07T03:12:08.098Z,9.95
2017-04-07T03:12:34.203Z,9.95
2017-04-07T03:13:00.281Z,9.91
2017-04-07T03:13:26.386Z,9.95
2017-04-07T03:13:52.467Z,9.95
2017-04-07T03:14:18.546Z,9.98
2017-04-07T03:14:44.625Z,9.95
2017-04-07T03:15:10.752Z,9.82
2017-04-07T03:15:36.828Z,9.95
2017-04-07T03:16:02.908Z,9.79
2017-04-07T03:16:28.990Z,9.8
2017-04-07T03:16:55.069Z,9.79
2017-04-07T03:17:21.148Z,9.82
2017-04-07T03:17:47.229Z,9.8
2017-04-07T03:18:13.310Z,9.91
2017-04-07T03:18:39.391Z,9.84
2017-04-07T03:19:05.493Z,9.79
2017-04-07T03:19:31.574Z,9.79
2017-04-07T03:19:57.658Z,9.84
2017-04-07T03:20:23.738Z,9.84
2017-04-07T03:20:49.819Z,9.77
2017-04-07T03:21:15.899Z,9.8
2017-04-07T03:21:41.978Z,9.84
2017-04-07T03:22:08.083Z,9.77
2017-04-07T03:22:34.186Z,9.8
2017-04-07T03:23:00.267Z,9.82
2017-04-07T03:23:26.345Z,9.74
2017-04-07T03:23:52.425Z,9.84
2017-04-07T03:24:18.507Z,9.79
2017-04-07T03:24:44.589Z,9.82
2017-04-07T03:25:10.665Z,9.94
2017-04-07T03:25:36.750Z,9.91
2017-04-07T03:26:02.852Z,9.82
2017-04-07T03:26:28.932Z,9.86
2017-04-07T03:26:55.010Z,9.84
2017-04-07T03:27:21.089Z,9.89
2017-04-07T03:27:47.169Z,9.82
2017-04-07T03:28:13.249Z,9.82
2017-04-07T03:28:39.332Z,9.91
2017-04-07T03:29:05.411Z,9.83
2017-04-07T03:29:31.488Z,9.77
2017-04-07T03:29:57.569Z,9.8
2017-04-07T03:30:23.648Z,9.84
2017-04-07T03:30:49.750Z,9.83
2017-04-07T03:31:15.831Z,9.8
2017-04-07T03:31:41.912Z,9.84
2017-04-07T03:32:07.989Z,9.86
2017-04-07T03:32:34.069Z,9.79
2017-04-07T03:33:00.157Z,9.84
2017-04-07T03:33:26.251Z,9.83
2017-04-07T03:33:52.330Z,9.92
2017-04-07T03:34:18.433Z,9.94
2017-04-07T03:34:44.511Z,9.83
2017-04-07T03:35:10.588Z,9.92
2017-04-07T03:35:36.669Z,9.83
2017-04-07T03:36:02.750Z,9.86
2017-04-07T03:36:28.852Z,9.84
2017-04-07T03:36:54.958Z,9.92
2017-04-07T03:37:21.062Z,9.92
2017-04-07T03:37:47.141Z,9.92
2017-04-07T03:38:13.220Z,9.92
2017-04-07T03:38:39.299Z,9.92
2017-04-07T03:39:05.402Z,9.94
2017-04-07T03:39:31.481Z,9.83
2017-04-07T03:39:57.583Z,9.82
2017-04-07T03:40:23.665Z,9.8
2017-04-07T03:40:49.745Z,9.84
2017-04-07T03:41:15.823Z,9.84
2017-04-07T03:41:41.907Z,9.84
2017-04-07T03:42:07.988Z,9.86
2017-04-07T03:42:34.113Z,9.83
2017-04-07T03:43:00.193Z,9.86
2017-04-07T03:43:26.274Z,9.94
2017-04-07T03:43:52.356Z,9.83
2017-04-07T03:44:18.433Z,9.92
2017-04-07T03:44:44.514Z,9.94
2017-04-07T03:45:10.593Z,9.84
2017-04-07T03:45:36.671Z,10.01
2017-04-07T03:46:02.777Z,9.95
2017-04-07T03:46:28.859Z,9.95
2017-04-07T03:46:54.938Z,9.97
2017-04-07T03:47:21.015Z,9.98
2017-04-07T03:47:47.097Z,9.99
2017-04-07T03:48:13.179Z,9.99
2017-04-07T03:48:39.280Z,9.94
2017-04-07T03:49:05.382Z,9.92
2017-04-07T03:49:31.487Z,9.83
2017-04-07T03:49:57.590Z,9.89
2017-04-07T03:50:23.669Z,9.91
2017-04-07T03:50:49.750Z,9.92
2017-04-07T03:51:15.831Z,9.95
2017-04-07T03:51:41.910Z,9.92
2017-04-07T03:52:07.989Z,9.95
2017-04-07T03:52:34.072Z,9.86
2017-04-07T03:53:00.152Z,9.83
2017-04-07T03:53:26.230Z,9.82
2017-04-07T03:53:52.315Z,9.95
2017-04-07T03:54:18.413Z,9.87
2017-04-07T03:54:44.539Z,9.83
2017-04-07T03:55:10.618Z,9.97
2017-04-07T03:55:36.699Z,9.97
2017-04-07T03:56:02.803Z,9.84
2017-04-07T03:56:28.880Z,9.92
2017-04-07T03:56:54.984Z,9.98
2017-04-07T03:57:21.084Z,9.95
2017-04-07T03:57:47.162Z,9.94
2017-04-07T03:58:13.265Z,9.97
2017-04-07T03:58:39.347Z,9.99
2017-04-07T03:59:05.430Z,9.95
2017-04-07T03:59:31.529Z,9.97
2017-04-07T03:59:57.611Z,10.09
2017-04-07T04:00:23.719Z,10.01
2017-04-07T04:00:49.797Z,9.95
2017-04-07T04:01:15.876Z,9.99
2017-04-07T04:01:41.980Z,10.02
2017-04-07T04:02:08.107Z,9.95
2017-04-07T04:02:34.187Z,9.95
2017-04-07T04:03:00.267Z,9.98
2017-04-07T04:03:26.348Z,9.95
2017-04-07T04:03:52.428Z,9.97
2017-04-07T04:04:18.509Z,9.97
2017-04-07T04:04:44.589Z,9.87
2017-04-07T04:05:10.701Z,9.95
2017-04-07T04:05:36.753Z,9.95
2017-04-07T04:06:02.831Z,9.95
2017-04-07T04:06:28.910Z,10.02
2017-04-07T04:06:54.994Z,9.91
2017-04-07T04:07:21.068Z,9.99
2017-04-07T04:07:47.191Z,9.95
2017-04-07T04:08:13.274Z,9.94
2017-04-07T04:08:39.379Z,9.84
2017-04-07T04:09:05.461Z,9.95
2017-04-07T04:09:31.540Z,9.91
2017-04-07T04:09:57.647Z,9.89
2017-04-07T04:10:23.727Z,9.89
2017-04-07T04:10:49.805Z,9.83
2017-04-07T04:11:15.887Z,9.82
2017-04-07T04:11:41.967Z,9.92
2017-04-07T04:12:08.046Z,9.98
2017-04-07T04:12:34.147Z,9.92
2017-04-07T04:13:00.229Z,9.82
2017-04-07T04:13:26.328Z,9.89
2017-04-07T04:13:52.405Z,9.94
2017-04-07T04:14:18.486Z,9.89
2017-04-07T04:14:44.591Z,9.84
2017-04-07T04:15:10.670Z,9.91
2017-04-07T04:15:36.754Z,9.92
2017-04-07T04:16:58.760Z,9.84
2017-04-07T04:17:24.839Z,9.94
2017-04-07T04:17:50.920Z,9.92
2017-04-07T04:18:17.023Z,9.92
2017-04-07T04:18:43.104Z,9.98
2017-04-07T04:19:09.207Z,9.97
2017-04-07T04:19:35.288Z,10.05
2017-04-07T04:20:01.369Z,10.02
2017-04-07T04:20:27.453Z,9.98
2017-04-07T04:20:53.532Z,10.04
2017-04-07T04:21:19.613Z,10.1
2017-04-07T04:21:45.696Z,10.05
2017-04-07T04:22:11.801Z,10.07
2017-04-07T04:22:37.901Z,10.05
2017-04-07T04:23:03.982Z,10.07
2017-04-07T04:23:30.064Z,10.1
2017-04-07T04:23:56.170Z,9.89
2017-04-07T04:24:22.248Z,9.99
2017-04-07T04:24:48.349Z,9.95
2017-04-07T04:25:14.430Z,9.94
2017-04-07T04:25:40.512Z,9.97
2017-04-07T04:26:06.589Z,9.99
2017-04-07T04:26:32.672Z,9.97
2017-04-07T04:26:58.775Z,9.92
2017-04-07T04:27:24.853Z,9.94
2017-04-07T04:27:50.954Z,10.07
2017-04-07T04:28:17.037Z,9.97
2017-04-07T04:28:43.117Z,10.07
2017-04-07T04:29:09.195Z,9.98
2017-04-07T04:29:35.278Z,9.98
2017-04-07T04:30:01.356Z,9.92
2017-04-07T04:30:27.436Z,9.95
2017-04-07T04:30:53.517Z,9.92
2017-04-07T04:31:19.645Z,9.8
2017-04-07T04:31:45.745Z,9.94
2017-04-07T04:32:11.824Z,9.8
2017-04-07T04:32:37.905Z,9.86
2017-04-07T04:33:03.985Z,9.86
2017-04-07T04:33:30.065Z,9.94
2017-04-07T04:33:56.146Z,9.91
2017-04-07T04:34:22.228Z,9.95
2017-04-07T04:34:48.309Z,9.84
2017-04-07T04:35:14.408Z,9.91
2017-04-07T04:35:40.493Z,9.97
2017-04-07T04:36:06.619Z,9.92
2017-04-07T04:36:32.700Z,9.94
2017-04-07T04:36:58.779Z,10.01
2017-04-07T04:37:24.858Z,9.94
2017-04-07T04:37:50.938Z,9.98
2017-04-07T04:38:17.018Z,9.95
2017-04-07T04:38:43.097Z,9.98
2017-04-07T04:39:09.183Z,10.05
2017-04-07T04:39:35.285Z,9.99
2017-04-07T04:40:01.364Z,9.99
2017-04-07T04:40:27.465Z,9.95
2017-04-07T04:40:53.548Z,10.07
2017-04-07T04:41:19.630Z,9.99
2017-04-07T04:41:45.710Z,9.99
2017-04-07T04:42:11.791Z,9.95
2017-04-07T04:42:37.869Z,9.98
2017-04-07T04:43:03.947Z,9.99
2017-04-07T04:43:30.027Z,10.02
2017-04-07T04:43:56.107Z,10.02
2017-04-07T04:44:22.185Z,10.02
2017-04-07T04:44:48.268Z,10.04
2017-04-07T04:45:14.351Z,10.1
2017-04-07T04:45:40.430Z,10.04
2017-04-07T04:46:06.509Z,10.05
2017-04-07T04:46:32.591Z,10.16
2017-04-07T04:46:58.673Z,10.2
2017-04-07T04:47:24.773Z,10.16
2017-04-07T04:47:50.853Z,10.15
2017-04-07T04:48:16.936Z,10.16
2017-04-07T04:48:43.018Z,10.13
2017-04-07T04:49:09.094Z,10.22
2017-04-07T04:49:35.175Z,10.15
2017-04-07T04:50:01.255Z,10.05
2017-04-07T04:50:27.356Z,10.09
2017-04-07T04:50:53.437Z,9.95
2017-04-07T04:51:19.518Z,10.01
2017-04-07T04:51:45.598Z,10.04
2017-04-07T04:52:11.677Z,10.07
2017-04-07T04:52:37.758Z,10.07
2017-04-07T04:53:03.865Z,10.01
2017-04-07T04:53:29.941Z,10.1
2017-04-07T04:53:56.022Z,10.19
2017-04-07T04:54:22.102Z,10.16
2017-04-07T04:54:48.182Z,10.12
2017-04-07T04:55:14.261Z,10.07
2017-04-07T04:55:40.341Z,10.1
2017-04-07T04:56:06.422Z,10.1
2017-04-07T04:56:32.502Z,10.15
2017-04-07T04:56:58.581Z,10.13
2017-04-07T04:57:24.660Z,10.05
2017-04-07T04:57:50.741Z,10.1
2017-04-07T04:58:16.822Z,10.04
2017-04-07T04:58:42.901Z,10.07
2017-04-07T04:59:08.979Z,10.09
2017-04-07T04:59:35.063Z,10.17
2017-04-07T05:00:01.143Z,10.17
2017-04-07T05:00:27.222Z,10.19
2017-04-07T05:00:53.302Z,10.23
2017-04-07T05:01:19.381Z,10.31
2017-04-07T05:01:45.461Z,10.23
2017-04-07T05:02:11.542Z,10.25
2017-04-07T05:02:37.647Z,10.31
2017-04-07T05:03:03.725Z,10.28
2017-04-07T05:03:29.802Z,10.3
2017-04-07T05:03:55.885Z,10.3
2017-04-07T05:04:21.991Z,10.25
2017-04-07T05:04:48.091Z,10.25
2017-04-07T05:05:14.192Z,10.22
2017-04-07T05:05:40.275Z,10.13
2017-04-07T05:06:06.356Z,10.12
2017-04-07T05:06:32.435Z,10.2
2017-04-07T05:06:58.515Z,10.2
2017-04-07T05:07:24.597Z,10.17
2017-04-07T05:07:50.676Z,10.15
2017-04-07T05:08:16.755Z,10.19
2017-04-07T05:08:42.861Z,10.16
2017-04-07T05:09:08.938Z,10.22
2017-04-07T05:09:35.017Z,10.26
2017-04-07T05:10:01.098Z,10.28
2017-04-07T05:10:27.205Z,10.2
2017-04-07T05:10:53.284Z,10.35
2017-04-07T05:11:19.384Z,10.23
2017-04-07T05:11:45.467Z,10.23
2017-04-07T05:12:11.571Z,10.33
2017-04-07T05:12:37.675Z,10.35
2017-04-07T05:13:03.753Z,10.31
2017-04-07T05:13:29.836Z,10.34
2017-04-07T05:13:55.918Z,10.35
2017-04-07T05:14:22.018Z,10.35
2017-04-07T05:14:48.100Z,10.3
2017-04-07T05:15:14.183Z,10.28
2017-04-07T05:15:40.261Z,10.34
2017-04-07T05:16:06.342Z,10.23
2017-04-07T05:16:32.445Z,10.35
2017-04-07T05:16:58.528Z,10.37
2017-04-07T05:17:24.610Z,10.3
2017-04-07T05:17:50.689Z,10.34
2017-04-07T05:18:16.790Z,10.33
2017-04-07T05:18:42.873Z,10.31
2017-04-07T05:19:08.953Z,10.28
2017-04-07T05:19:35.031Z,10.26
2017-04-07T05:20:01.113Z,10.35
2017-04-07T05:20:27.192Z,10.35
2017-04-07T05:20:53.271Z,10.42
2017-04-07T05:21:19.352Z,10.4
2017-04-07T05:21:45.432Z,10.41
2017-04-07T05:22:11.552Z,10.44
2017-04-07T05:22:37.662Z,10.4
2017-04-07T05:23:03.766Z,10.38
2017-04-07T05:23:29.849Z,10.4
2017-04-07T05:23:55.931Z,10.42
2017-04-07T05:24:22.011Z,10.42
2017-04-07T05:24:48.113Z,10.41
2017-04-07T05:25:14.193Z,10.41
2017-04-07T05:25:40.274Z,10.42
2017-04-07T05:26:06.355Z,10.54
2017-04-07T05:26:32.460Z,10.57
2017-04-07T05:26:58.542Z,10.59
2017-04-07T05:27:24.648Z,10.48
2017-04-07T05:27:50.747Z,10.56
2017-04-07T05:28:16.876Z,10.51
2017-04-07T05:28:42.955Z,10.54
2017-04-07T05:29:09.038Z,10.46
2017-04-07T05:29:35.118Z,10.49
2017-04-07T05:30:01.199Z,10.56
2017-04-07T05:30:27.304Z,10.53
2017-04-07T05:30:53.382Z,10.6
2017-04-07T05:31:19.457Z,10.46
2017-04-07T05:31:45.540Z,10.46
2017-04-07T05:32:11.623Z,10.56
2017-04-07T05:32:37.721Z,10.49
2017-04-07T05:33:03.804Z,10.59
2017-04-07T05:33:29.881Z,10.49
2017-04-07T05:33:55.959Z,10.59
2017-04-07T05:34:22.140Z,10.59
2017-04-07T05:34:48.219Z,10.56
2017-04-07T05:35:14.300Z,10.54
2017-04-07T05:35:40.430Z,10.57
2017-04-07T05:36:06.511Z,10.56
2017-04-07T05:36:32.591Z,10.56
2017-04-07T05:36:58.670Z,10.61
2017-04-07T05:37:24.751Z,10.56
2017-04-07T05:37:50.830Z,10.72
2017-04-07T05:38:16.913Z,10.71
2017-04-07T05:38:42.992Z,10.64
2017-04-07T05:39:09.072Z,10.59
2017-04-07T05:39:35.151Z,10.6
2017-04-07T05:40:01.234Z,10.59
2017-04-07T05:40:27.361Z,10.53
2017-04-07T05:40:53.466Z,10.49
2017-04-07T05:41:19.543Z,10.57
2017-04-07T05:41:45.624Z,10.57
2017-04-07T05:42:11.728Z,10.48
2017-04-07T05:42:37.806Z,10.48
2017-04-07T05:43:03.887Z,10.44
2017-04-07T05:43:29.971Z,10.48
2017-04-07T05:43:56.074Z,10.53
2017-04-07T05:44:22.154Z,10.53
2017-04-07T05:44:48.259Z,10.61
2017-04-07T05:45:14.339Z,10.56
2017-04-07T05:45:40.420Z,10.64